createdAt,value
2023-05-07T00:02:26.271Z,97422.72
2023-05-07T00:04:53.140Z,97408.84
2023-05-07T00:07:19.827Z,97401.06
2023-05-07T00:09:46.403Z,97385.81
2023-05-07T00:12:14.464Z,97377.41
2023-05-07T00:14:42.305Z,97373.38
2023-05-07T00:17:08.849Z,97368.97
2023-05-07T00:19:35.931Z,97364.53
2023-05-07T00:22:03.502Z,97365.59
2023-05-07T00:24:30.103Z,97365.50
2023-05-07T00:26:57.334Z,97378.94
2023-05-07T00:29:24.276Z,97379.66
2023-05-07T00:31:51.541Z,97378.31
2023-05-07T00:34:18.147Z,97383.78
2023-05-07T00:36:44.811Z,97386.78
2023-05-07T00:39:11.752Z,97388.97
2023-05-07T00:41:40.928Z,97387.97
2023-05-07T00:44:09.651Z,97402.69
2023-05-07T00:46:37.109Z,97397.50
2023-05-07T00:49:03.817Z,97396.28
2023-05-07T00:51:30.381Z,97399.31
2023-05-07T00:53:57.023Z,97402.09
2023-05-07T00:56:23.592Z,97409.59
2023-05-07T00:58:50.254Z,97410.94
2023-05-07T01:01:17.129Z,97412.31
2023-05-07T01:03:45.071Z,97415.09
2023-05-07T01:06:12.176Z,97405.69
2023-05-07T01:08:39.141Z,97410.44
2023-05-07T01:11:05.752Z,97413.38
2023-05-07T01:13:32.817Z,97410.97
2023-05-07T01:15:59.390Z,97409.34
2023-05-07T01:18:25.989Z,97401.50
2023-05-07T01:20:52.676Z,97405.41
2023-05-07T01:23:19.287Z,97404.97
2023-05-07T01:25:45.875Z,97400.25
2023-05-07T01:28:12.525Z,97394.81
2023-05-07T01:30:39.121Z,97397.47
2023-05-07T01:33:05.740Z,97397.66
2023-05-07T01:35:32.332Z,97396.28
2023-05-07T01:37:58.928Z,97387.63
2023-05-07T01:40:25.492Z,97393.78
2023-05-07T01:42:52.141Z,97385.09
2023-05-07T01:45:19.626Z,97390.66
2023-05-07T01:47:47.580Z,97385.09
2023-05-07T01:50:14.441Z,97393.13
2023-05-07T01:52:41.320Z,97391.53
2023-05-07T01:55:08.272Z,97392.00
2023-05-07T01:57:34.854Z,97395.59
2023-05-07T02:00:01.448Z,97396.09
2023-05-07T02:02:28.958Z,97392.28
2023-05-07T02:04:55.556Z,97394.22
2023-05-07T02:07:22.154Z,97396.44
2023-05-07T02:09:48.714Z,97391.84
2023-05-07T02:12:15.320Z,97387.19
2023-05-07T02:14:41.975Z,97385.25
2023-05-07T02:17:08.603Z,97374.47
2023-05-07T02:19:35.229Z,97370.22
2023-05-07T02:22:01.824Z,97379.56
2023-05-07T02:24:28.381Z,97380.97
2023-05-07T02:26:54.937Z,97387.00
2023-05-07T02:29:21.527Z,97390.97
2023-05-07T02:31:48.252Z,97388.41
2023-05-07T02:34:14.844Z,97391.31
2023-05-07T02:36:41.422Z,97391.09
2023-05-07T02:39:07.989Z,97384.75
2023-05-07T02:41:34.568Z,97389.84
2023-05-07T02:44:01.147Z,97391.38
2023-05-07T02:46:28.124Z,97385.22
2023-05-07T02:48:54.751Z,97382.25
2023-05-07T02:51:22.798Z,97373.84
2023-05-07T02:53:50.641Z,97384.22
2023-05-07T02:56:17.203Z,97381.16
2023-05-07T02:58:43.777Z,97380.72
2023-05-07T03:01:10.435Z,97389.56
2023-05-07T03:03:37.367Z,97387.94
2023-05-07T03:06:03.965Z,97389.25
2023-05-07T03:08:33.019Z,97393.44
2023-05-07T03:11:03.053Z,97392.94
2023-05-07T03:13:31.754Z,97395.16
2023-05-07T03:15:59.159Z,97397.59
2023-05-07T03:18:25.780Z,97401.00
2023-05-07T03:20:52.468Z,97400.38
2023-05-07T03:23:19.247Z,97393.19
2023-05-07T03:25:45.836Z,97399.19
2023-05-07T03:28:12.417Z,97405.66
2023-05-07T03:30:38.998Z,97401.78
2023-05-07T03:33:05.626Z,97407.53
2023-05-07T03:35:32.329Z,97401.16
2023-05-07T03:37:59.062Z,97402.88
2023-05-07T03:40:26.754Z,97410.09
2023-05-07T03:42:53.340Z,97408.91
2023-05-07T03:45:19.985Z,97409.19
2023-05-07T03:47:46.874Z,97414.84
2023-05-07T03:50:13.632Z,97416.72
2023-05-07T03:52:40.321Z,97424.69
2023-05-07T03:55:06.885Z,97421.41
2023-05-07T03:57:33.481Z,97423.50
2023-05-07T04:00:00.040Z,97426.41
2023-05-07T04:02:26.741Z,97428.72
2023-05-07T04:04:53.432Z,97433.38
2023-05-07T04:07:20.024Z,97432.97
2023-05-07T04:09:47.001Z,97437.44
2023-05-07T04:12:13.597Z,97438.59
2023-05-07T04:14:40.201Z,97436.31
2023-05-07T04:17:06.811Z,97443.66
2023-05-07T04:19:33.367Z,97432.63
2023-05-07T04:21:59.946Z,97439.25
2023-05-07T04:24:26.530Z,97438.13
2023-05-07T04:26:53.107Z,97445.16
2023-05-07T04:29:19.662Z,97442.03
2023-05-07T04:31:46.311Z,97443.31
2023-05-07T04:34:12.904Z,97446.66
2023-05-07T04:36:39.503Z,97440.16
2023-05-07T04:39:06.103Z,97447.50
2023-05-07T04:44:00.431Z,97458.22
2023-05-07T04:46:27.119Z,97458.06
2023-05-07T04:48:53.836Z,97459.13
2023-05-07T04:51:20.468Z,97460.56
2023-05-07T04:53:48.767Z,97459.50
2023-05-07T04:56:17.618Z,97456.75
2023-05-07T04:58:44.221Z,97463.53
2023-05-07T05:01:10.862Z,97459.66
2023-05-07T05:03:37.559Z,97466.16
2023-05-07T05:06:04.228Z,97469.19
2023-05-07T05:08:30.827Z,97467.44
2023-05-07T05:10:57.394Z,97469.88
2023-05-07T05:13:24.246Z,97469.88
2023-05-07T05:15:51.047Z,97478.69
2023-05-07T05:18:17.692Z,97480.75
2023-05-07T05:20:44.501Z,97490.59
2023-05-07T05:23:11.105Z,97483.78
2023-05-07T05:25:37.657Z,97492.47
2023-05-07T05:28:04.235Z,97490.34
2023-05-07T05:30:30.843Z,97489.75
2023-05-07T05:32:57.504Z,97493.84
2023-05-07T05:35:24.174Z,97504.72
2023-05-07T05:37:51.531Z,97494.88
2023-05-07T05:40:18.119Z,97493.97
2023-05-07T05:42:44.730Z,97497.88
2023-05-07T05:45:11.321Z,97499.63
2023-05-07T05:47:37.900Z,97506.34
2023-05-07T05:50:04.517Z,97499.94
2023-05-07T05:52:31.138Z,97499.59
2023-05-07T05:54:57.709Z,97504.00
2023-05-07T05:57:26.006Z,97500.09
2023-05-07T05:59:53.221Z,97498.31
2023-05-07T06:02:19.990Z,97499.19
2023-05-07T06:04:46.715Z,97486.59
2023-05-07T06:07:13.350Z,97494.81
2023-05-07T06:09:39.957Z,97495.88
2023-05-07T06:12:06.549Z,97492.97
2023-05-07T06:14:33.147Z,97487.56
2023-05-07T06:17:00.277Z,97486.16
2023-05-07T06:19:29.828Z,97488.56
2023-05-07T06:21:58.019Z,97482.59
2023-05-07T06:24:24.621Z,97488.06
2023-05-07T06:26:51.209Z,97488.66
2023-05-07T06:29:17.761Z,97494.72
2023-05-07T06:31:44.671Z,97496.66
2023-05-07T06:34:11.298Z,97500.28
2023-05-07T06:36:37.924Z,97496.44
2023-05-07T06:39:04.591Z,97494.50
2023-05-07T06:41:31.211Z,97498.66
2023-05-07T06:43:58.720Z,97496.22
2023-05-07T06:46:26.389Z,97497.19
2023-05-07T06:48:53.058Z,97493.75
2023-05-07T06:51:19.690Z,97501.19
2023-05-07T06:53:51.817Z,97496.53
2023-05-07T06:56:18.453Z,97504.19
2023-05-07T06:58:45.045Z,97508.78
2023-05-07T07:01:11.728Z,97505.19
2023-05-07T07:03:38.340Z,97509.19
2023-05-07T07:06:04.952Z,97506.44
2023-05-07T07:08:31.531Z,97507.31
2023-05-07T07:10:58.183Z,97511.53
2023-05-07T07:13:24.904Z,97515.63
2023-05-07T07:15:51.620Z,97509.31
2023-05-07T07:18:18.200Z,97506.72
2023-05-07T07:20:44.802Z,97510.75
2023-05-07T07:23:11.531Z,97515.41
2023-05-07T07:25:38.118Z,97504.44
2023-05-07T07:28:04.688Z,97512.16
2023-05-07T07:30:31.753Z,97513.09
2023-05-07T07:32:58.385Z,97507.00
2023-05-07T07:35:25.803Z,97517.25
2023-05-07T07:37:52.445Z,97520.63
2023-05-07T07:40:19.027Z,97517.50
2023-05-07T07:42:45.624Z,97521.50
2023-05-07T07:45:13.040Z,97520.56
2023-05-07T07:47:40.164Z,97517.81
2023-05-07T07:50:06.843Z,97513.72
2023-05-07T07:52:33.422Z,97511.69
2023-05-07T07:55:00.026Z,97513.06
2023-05-07T07:57:26.717Z,97513.56
2023-05-07T07:59:54.579Z,97507.81
2023-05-07T08:02:21.204Z,97509.34
2023-05-07T08:04:47.847Z,97510.72
2023-05-07T08:07:14.423Z,97510.75
2023-05-07T08:09:41.005Z,97525.53
2023-05-07T08:12:07.809Z,97511.88
2023-05-07T08:14:34.786Z,97507.06
2023-05-07T08:17:01.469Z,97515.81
2023-05-07T08:19:28.077Z,97513.94
2023-05-07T08:21:56.066Z,97511.34
2023-05-07T08:24:22.803Z,97509.25
2023-05-07T08:26:49.402Z,97510.69
2023-05-07T08:29:16.951Z,97507.97
2023-05-07T08:31:43.558Z,97517.16
2023-05-07T08:34:10.451Z,97521.34
2023-05-07T08:36:37.180Z,97512.97
2023-05-07T08:39:03.791Z,97517.31
2023-05-07T08:41:30.365Z,97521.75
2023-05-07T08:43:56.956Z,97502.69
2023-05-07T08:46:23.704Z,97501.97
2023-05-07T08:48:50.336Z,97506.69
2023-05-07T08:51:17.219Z,97508.31
2023-05-07T08:53:43.806Z,97490.28
2023-05-07T08:56:10.912Z,97503.00
2023-05-07T08:58:37.536Z,97499.44
2023-05-07T09:01:04.136Z,97497.09
2023-05-07T09:03:30.765Z,97498.94
2023-05-07T09:05:57.355Z,97504.03
2023-05-07T09:08:23.951Z,97502.75
2023-05-07T09:10:50.508Z,97503.78
2023-05-07T09:13:18.440Z,97500.56
2023-05-07T09:15:45.105Z,97498.72
2023-05-07T09:18:11.786Z,97497.91
2023-05-07T09:20:38.745Z,97505.28
2023-05-07T09:23:05.537Z,97500.09
2023-05-07T09:25:33.367Z,97498.88
2023-05-07T09:27:59.982Z,97497.38
2023-05-07T09:30:26.574Z,97497.72
2023-05-07T09:32:53.303Z,97498.56
2023-05-07T09:35:20.734Z,97493.53
2023-05-07T09:37:47.302Z,97494.69
2023-05-07T09:40:13.911Z,97498.94
2023-05-07T09:42:40.484Z,97496.53
2023-05-07T09:45:07.072Z,97500.06
2023-05-07T09:47:33.815Z,97496.53
2023-05-07T09:50:00.462Z,97502.69
2023-05-07T09:52:27.067Z,97504.78
2023-05-07T09:54:53.624Z,97507.78
2023-05-07T09:57:20.174Z,97509.41
2023-05-07T09:59:46.869Z,97506.44
2023-05-07T10:02:13.439Z,97496.19
2023-05-07T10:04:40.069Z,97504.25
2023-05-07T10:07:06.660Z,97495.16
2023-05-07T10:09:33.243Z,97488.75
2023-05-07T10:11:59.831Z,97498.19
2023-05-07T10:14:26.415Z,97505.69
2023-05-07T10:16:53.011Z,97497.59
2023-05-07T10:19:21.059Z,97493.81
2023-05-07T10:21:47.619Z,97480.59
2023-05-07T10:24:14.204Z,97472.44
2023-05-07T10:26:40.794Z,97477.56
2023-05-07T10:29:07.386Z,97477.44
2023-05-07T10:31:34.050Z,97473.34
2023-05-07T10:34:00.753Z,97467.28
2023-05-07T10:36:27.377Z,97459.75
2023-05-07T10:38:53.940Z,97464.69
2023-05-07T10:41:20.523Z,97463.38
2023-05-07T10:43:47.087Z,97456.22
2023-05-07T10:46:13.739Z,97466.47
2023-05-07T10:48:40.331Z,97463.09
2023-05-07T10:51:08.052Z,97469.63
2023-05-07T10:53:35.023Z,97460.88
2023-05-07T10:56:01.583Z,97461.31
2023-05-07T10:58:32.848Z,97457.09
2023-05-07T11:00:59.762Z,97462.97
2023-05-07T11:03:26.420Z,97462.03
2023-05-07T11:05:52.992Z,97450.97
2023-05-07T11:08:19.625Z,97444.63
2023-05-07T11:10:46.233Z,97446.91
2023-05-07T11:13:12.907Z,97447.34
2023-05-07T11:15:39.577Z,97449.59
2023-05-07T11:18:06.217Z,97444.38
2023-05-07T11:20:32.858Z,97441.97
2023-05-07T11:22:59.456Z,97442.75
2023-05-07T11:25:26.016Z,97442.19
2023-05-07T11:27:52.638Z,97433.97
2023-05-07T11:30:20.222Z,97439.56
2023-05-07T11:32:46.860Z,97445.06
2023-05-07T11:35:14.245Z,97443.56
2023-05-07T11:37:41.005Z,97445.75
2023-05-07T11:40:07.705Z,97439.63
2023-05-07T11:42:35.116Z,97440.75
2023-05-07T11:45:01.700Z,97432.53
2023-05-07T11:47:28.303Z,97427.13
2023-05-07T11:49:54.918Z,97427.69
2023-05-07T11:52:21.473Z,97425.25
2023-05-07T11:54:48.071Z,97415.72
2023-05-07T11:57:14.642Z,97408.97
2023-05-07T11:59:41.241Z,97420.53
2023-05-07T12:02:08.447Z,97417.63
2023-05-07T12:04:35.068Z,97427.47
2023-05-07T12:07:03.027Z,97427.44
2023-05-07T12:09:29.612Z,97425.91
2023-05-07T12:11:56.204Z,97427.03
2023-05-07T12:14:23.105Z,97427.91
2023-05-07T12:16:49.673Z,97423.88
2023-05-07T12:19:16.298Z,97419.13
2023-05-07T12:21:42.888Z,97426.66
2023-05-07T12:24:09.472Z,97426.16
2023-05-07T12:26:36.068Z,97429.41
2023-05-07T12:29:02.669Z,97435.91
2023-05-07T12:31:29.304Z,97431.06
2023-05-07T12:33:55.942Z,97430.47
2023-05-07T12:36:22.498Z,97431.88
2023-05-07T12:38:49.101Z,97433.97
2023-05-07T12:41:15.772Z,97430.59
2023-05-07T12:43:42.593Z,97432.50
2023-05-07T12:46:09.649Z,97444.03
2023-05-07T12:48:36.413Z,97439.13
2023-05-07T12:51:03.045Z,97440.50
2023-05-07T12:53:29.636Z,97445.63
2023-05-07T12:55:56.444Z,97445.22
2023-05-07T12:58:23.015Z,97443.25
2023-05-07T13:00:49.594Z,97446.88
2023-05-07T13:03:16.341Z,97446.59
2023-05-07T13:05:42.941Z,97451.16
2023-05-07T13:08:09.508Z,97453.59
2023-05-07T13:10:36.388Z,97453.84
2023-05-07T13:13:03.268Z,97460.84
2023-05-07T13:15:29.883Z,97449.00
2023-05-07T13:17:56.625Z,97450.63
2023-05-07T13:20:23.887Z,97461.06
2023-05-07T13:22:50.672Z,97472.06
2023-05-07T13:25:17.265Z,97474.06
2023-05-07T13:27:43.869Z,97480.31
2023-05-07T13:30:10.485Z,97481.69
2023-05-07T13:32:37.130Z,97484.59
2023-05-07T13:35:03.756Z,97486.66
2023-05-07T13:37:30.664Z,97484.75
2023-05-07T13:39:57.230Z,97490.97
2023-05-07T13:42:24.133Z,97505.94
2023-05-07T13:44:50.747Z,97521.97
2023-05-07T13:47:17.367Z,97540.34
2023-05-07T13:49:44.010Z,97530.84
2023-05-07T13:52:10.713Z,97528.47
2023-05-07T13:54:37.267Z,97526.22
2023-05-07T13:57:03.836Z,97523.16
2023-05-07T13:59:30.478Z,97513.53
2023-05-07T14:01:57.049Z,97506.66
2023-05-07T14:04:23.812Z,97497.56
2023-05-07T14:06:50.402Z,97506.72
2023-05-07T14:09:17.176Z,97496.91
2023-05-07T14:11:44.589Z,97500.00
2023-05-07T14:14:12.402Z,97489.69
2023-05-07T14:16:38.995Z,97487.13
2023-05-07T14:19:05.607Z,97485.41
2023-05-07T14:21:32.254Z,97488.81
2023-05-07T14:23:58.848Z,97478.75
2023-05-07T14:26:25.414Z,97486.25
2023-05-07T14:28:52.011Z,97475.34
2023-05-07T14:31:18.633Z,97471.94
2023-05-07T14:33:45.267Z,97477.56
2023-05-07T14:36:11.859Z,97484.97
2023-05-07T14:38:38.446Z,97494.69
2023-05-07T14:41:04.994Z,97496.16
2023-05-07T14:43:32.534Z,97510.31
2023-05-07T14:45:59.115Z,97500.56
2023-05-07T14:48:25.732Z,97511.47
2023-05-07T14:50:52.300Z,97513.91
2023-05-07T14:53:18.893Z,97520.22
2023-05-07T14:55:45.480Z,97522.53
2023-05-07T14:58:12.055Z,97526.31
2023-05-07T15:00:38.668Z,97529.25
2023-05-07T15:03:05.367Z,97524.91
2023-05-07T15:05:31.979Z,97524.81
2023-05-07T15:07:58.626Z,97521.34
2023-05-07T15:10:25.263Z,97521.59
2023-05-07T15:12:51.915Z,97519.97
2023-05-07T15:15:18.527Z,97522.50
2023-05-07T15:17:46.732Z,97516.94
2023-05-07T15:20:13.320Z,97511.19
2023-05-07T15:22:39.909Z,97500.34
2023-05-07T15:25:06.488Z,97491.03
2023-05-07T15:27:33.077Z,97489.28
2023-05-07T15:29:59.717Z,97491.56
2023-05-07T15:32:26.363Z,97498.31
2023-05-07T15:34:52.966Z,97495.25
2023-05-07T15:37:19.542Z,97503.78
2023-05-07T15:39:46.136Z,97510.28
2023-05-07T15:42:12.709Z,97506.28
2023-05-07T15:44:39.286Z,97507.63
2023-05-07T15:47:05.880Z,97503.41
2023-05-07T15:49:32.495Z,97514.03
2023-05-07T15:51:59.054Z,97514.78
2023-05-07T15:54:25.661Z,97524.66
2023-05-07T15:56:52.315Z,97522.22
2023-05-07T15:59:18.978Z,97522.16
2023-05-07T16:01:45.743Z,97521.19
2023-05-07T16:04:14.798Z,97523.78
2023-05-07T16:06:41.381Z,97526.19
2023-05-07T16:09:07.965Z,97521.63
2023-05-07T16:11:34.624Z,97519.38
2023-05-07T16:14:01.557Z,97522.91
2023-05-07T16:16:28.206Z,97515.31
2023-05-07T16:18:55.423Z,97516.41
2023-05-07T16:21:22.089Z,97519.88
2023-05-07T16:23:48.655Z,97531.47
2023-05-07T16:26:15.246Z,97532.41
2023-05-07T16:28:41.874Z,97527.19
2023-05-07T16:31:08.550Z,97529.75
2023-05-07T16:33:35.225Z,97535.25
2023-05-07T16:36:01.826Z,97533.44
2023-05-07T16:38:28.379Z,97532.06
2023-05-07T16:40:55.066Z,97537.94
2023-05-07T16:43:22.048Z,97535.28
2023-05-07T16:45:48.677Z,97538.78
2023-05-07T16:48:15.289Z,97539.47
2023-05-07T16:50:41.877Z,97545.97
2023-05-07T16:53:08.436Z,97543.69
2023-05-07T16:55:37.995Z,97553.03
2023-05-07T16:58:05.017Z,97557.09
2023-05-07T17:00:46.304Z,97561.66
2023-05-07T17:03:16.783Z,97569.63
2023-05-07T17:05:43.427Z,97578.63
2023-05-07T17:08:10.058Z,97584.19
2023-05-07T17:10:36.637Z,97586.25
2023-05-07T17:13:03.274Z,97602.53
2023-05-07T17:15:29.866Z,97595.94
2023-05-07T17:17:56.615Z,97599.59
2023-05-07T17:20:23.256Z,97608.28
2023-05-07T17:22:49.856Z,97605.31
2023-05-07T17:25:16.467Z,97606.75
2023-05-07T17:27:43.211Z,97604.50
2023-05-07T17:30:10.045Z,97603.50
2023-05-07T17:32:36.790Z,97610.94
2023-05-07T17:35:04.076Z,97613.19
2023-05-07T17:37:31.972Z,97606.44
2023-05-07T17:39:58.543Z,97617.53
2023-05-07T17:42:25.242Z,97610.00
2023-05-07T17:44:51.849Z,97610.34
2023-05-07T17:47:18.510Z,97617.63
2023-05-07T17:49:45.092Z,97619.56
2023-05-07T17:52:11.648Z,97612.78
2023-05-07T17:54:38.272Z,97615.69
2023-05-07T17:57:04.873Z,97617.13
2023-05-07T17:59:31.460Z,97617.63
2023-05-07T18:01:59.512Z,97627.16
2023-05-07T18:04:26.086Z,97627.78
2023-05-07T18:06:52.685Z,97619.34
2023-05-07T18:09:19.352Z,97623.44
2023-05-07T18:11:45.935Z,97626.13
2023-05-07T18:14:12.528Z,97630.56
2023-05-07T18:16:39.238Z,97631.38
2023-05-07T18:19:05.855Z,97637.22
2023-05-07T18:21:32.426Z,97647.81
2023-05-07T18:23:59.113Z,97645.63
2023-05-07T18:26:25.787Z,97649.47
2023-05-07T18:28:52.377Z,97649.25
2023-05-07T18:31:19.053Z,97651.03
2023-05-07T18:33:45.669Z,97658.41
2023-05-07T18:36:12.227Z,97657.03
2023-05-07T18:38:38.910Z,97658.97
2023-05-07T18:41:05.583Z,97661.91
2023-05-07T18:43:32.136Z,97674.34
2023-05-07T18:45:58.866Z,97672.81
2023-05-07T18:48:25.533Z,97676.72
2023-05-07T18:50:58.277Z,97687.88
2023-05-07T18:53:24.980Z,97687.03
2023-05-07T18:55:51.552Z,97690.06
2023-05-07T18:58:19.067Z,97685.69
2023-05-07T19:00:45.695Z,97682.31
2023-05-07T19:03:12.450Z,97688.63
2023-05-07T19:05:39.217Z,97690.81
2023-05-07T19:08:05.984Z,97689.56
2023-05-07T19:10:34.301Z,97699.06
2023-05-07T19:13:00.926Z,97704.53
2023-05-07T19:15:27.602Z,97703.25
2023-05-07T19:17:54.418Z,97705.66
2023-05-07T19:20:21.008Z,97700.34
2023-05-07T19:22:47.598Z,97708.94
2023-05-07T19:25:14.320Z,97714.38
2023-05-07T19:27:41.123Z,97709.25
2023-05-07T19:30:07.809Z,97715.97
2023-05-07T19:32:34.455Z,97718.16
2023-05-07T19:35:01.071Z,97713.38
2023-05-07T19:37:27.644Z,97716.28
2023-05-07T19:39:56.429Z,97713.69
2023-05-07T19:42:23.118Z,97711.34
2023-05-07T19:44:49.714Z,97708.75
2023-05-07T19:47:16.291Z,97700.25
2023-05-07T19:49:42.883Z,97704.66
2023-05-07T19:52:09.459Z,97696.47
2023-05-07T19:54:36.082Z,97707.56
2023-05-07T19:57:02.818Z,97704.16
2023-05-07T19:59:29.404Z,97717.81
2023-05-07T20:01:56.114Z,97720.75
2023-05-07T20:04:22.783Z,97724.28
2023-05-07T20:06:49.462Z,97721.97
2023-05-07T20:09:19.113Z,97734.97
2023-05-07T20:11:46.160Z,97732.06
2023-05-07T20:14:13.478Z,97728.59
2023-05-07T20:16:40.141Z,97730.53
2023-05-07T20:19:06.750Z,97734.75
2023-05-07T20:21:33.384Z,97722.75
2023-05-07T20:24:00.044Z,97724.13
2023-05-07T20:26:26.650Z,97730.84
2023-05-07T20:28:53.243Z,97728.84
2023-05-07T20:31:19.860Z,97721.22
2023-05-07T20:33:46.426Z,97721.38
2023-05-07T20:36:13.023Z,97721.94
2023-05-07T20:38:39.653Z,97719.28
2023-05-07T20:41:06.237Z,97722.69
2023-05-07T20:43:32.786Z,97721.63
2023-05-07T20:45:59.446Z,97723.06
2023-05-07T20:48:26.057Z,97722.72
2023-05-07T20:50:52.623Z,97726.34
2023-05-07T20:53:19.249Z,97722.88
2023-05-07T20:55:46.124Z,97727.50
2023-05-07T20:58:19.810Z,97722.97
2023-05-07T21:00:46.391Z,97722.81
2023-05-07T21:03:12.990Z,97715.06
2023-05-07T21:05:39.601Z,97714.09
2023-05-07T21:08:06.169Z,97715.94
2023-05-07T21:10:32.765Z,97719.81
2023-05-07T21:12:59.385Z,97718.34
2023-05-07T21:15:26.033Z,97718.59
2023-05-07T21:20:37.138Z,97723.25
2023-05-07T21:23:03.796Z,97717.22
2023-05-07T21:25:30.385Z,97721.19
2023-05-07T21:27:56.987Z,97722.34
2023-05-07T21:30:23.936Z,97724.91
2023-05-07T21:32:50.625Z,97727.88
2023-05-07T21:35:17.263Z,97726.19
2023-05-07T21:37:43.862Z,97721.31
2023-05-07T21:40:10.603Z,97722.94
2023-05-07T21:42:39.083Z,97721.97
2023-05-07T21:45:05.690Z,97721.19
2023-05-07T21:47:32.350Z,97727.78
2023-05-07T21:49:58.950Z,97727.47
2023-05-07T21:52:25.842Z,97726.53
2023-05-07T21:54:52.740Z,97725.47
2023-05-07T21:57:19.362Z,97729.66
2023-05-07T21:59:45.949Z,97727.78
2023-05-07T22:02:12.546Z,97732.56
2023-05-07T22:04:39.093Z,97731.59
2023-05-07T22:07:05.686Z,97732.00
2023-05-07T22:09:32.306Z,97731.59
2023-05-07T22:11:59.225Z,97726.66
2023-05-07T22:14:27.728Z,97723.59
2023-05-07T22:16:54.348Z,97724.66
2023-05-07T22:19:21.097Z,97726.19
2023-05-07T22:21:47.675Z,97719.09
2023-05-07T22:24:14.320Z,97727.22
2023-05-07T22:26:40.905Z,97723.91
2023-05-07T22:29:11.124Z,97732.22
2023-05-07T22:31:37.793Z,97733.94
2023-05-07T22:34:04.423Z,97730.34
2023-05-07T22:36:30.992Z,97730.94
2023-05-07T22:38:57.688Z,97732.00
2023-05-07T22:41:24.277Z,97734.41
2023-05-07T22:43:50.839Z,97726.53
2023-05-07T22:46:17.450Z,97735.28
2023-05-07T22:48:46.304Z,97737.28
2023-05-07T22:51:12.917Z,97735.16
2023-05-07T22:53:39.497Z,97735.75
2023-05-07T22:56:06.130Z,97733.78
2023-05-07T22:58:32.692Z,97741.03
2023-05-07T23:00:59.332Z,97747.19
2023-05-07T23:03:26.125Z,97738.63
2023-05-07T23:05:52.795Z,97739.06
2023-05-07T23:08:19.372Z,97739.75
2023-05-07T23:10:46.089Z,97739.88
2023-05-07T23:13:13.043Z,97734.28
2023-05-07T23:15:39.690Z,97733.03
2023-05-07T23:18:06.319Z,97743.59
2023-05-07T23:20:32.932Z,97741.66
2023-05-07T23:22:59.636Z,97735.09
2023-05-07T23:25:26.275Z,97739.69
2023-05-07T23:27:53.470Z,97740.59
2023-05-07T23:30:20.077Z,97738.78
2023-05-07T23:32:47.146Z,97731.19
2023-05-07T23:35:13.897Z,97729.22
2023-05-07T23:37:40.690Z,97729.34
2023-05-07T23:40:09.969Z,97720.91
2023-05-07T23:42:36.803Z,97722.22
2023-05-07T23:45:03.372Z,97726.75
2023-05-07T23:47:29.990Z,97721.81
2023-05-07T23:49:58.599Z,97724.06
2023-05-07T23:52:26.931Z,97728.22
2023-05-07T23:54:53.976Z,97732.75
2023-05-07T23:57:20.538Z,97727.06
2023-05-07T23:59:48.140Z,97721.31
